X  LukMetar Aviation Weather Data     EKVJ Stauning

Temperatur

6°C Temperatur

4°C Dugpunkt

87% Luftfugtighed



Vind

32 KM/H

20 MPH

 9 M/S

17 KTS



190°
Southdir
Current Conditions

Partly Cloudy Partly Cloudy
Lufttryk 1010.92 (hPa) - 29.85 (in)
Visibility 6.2 (mi) - 10 (km)
Lufthavn
Airport-code EKVJ

Lokation Stauning 14 (km)

Metar:
EKVJ 101450Z 19017KT 9999 FEW025 BKN150 06/04 Q1011

Time: 12-10-2019 15:50